sensor_id;sensor_type;location;lat;lon;timestamp;pressure;altitude;pressure_sealevel;temperature;humidity
73297;BME280;61524;50.938;11.396;2023-04-28T00:00:44;99179.97;;;6.73;78.34
73297;BME280;61524;50.938;11.396;2023-04-28T00:03:12;99159.75;;;6.72;78.74
73297;BME280;61524;50.938;11.396;2023-04-28T00:05:37;99172.50;;;6.64;78.94
73297;BME280;61524;50.938;11.396;2023-04-28T00:08:03;99168.00;;;6.64;78.71
73297;BME280;61524;50.938;11.396;2023-04-28T00:10:29;99151.91;;;6.59;79.06
73297;BME280;61524;50.938;11.396;2023-04-28T00:12:55;99154.81;;;6.51;79.42
73297;BME280;61524;50.938;11.396;2023-04-28T00:15:21;99146.19;;;6.37;81.03
73297;BME280;61524;50.938;11.396;2023-04-28T00:17:46;99145.94;;;6.14;81.36
73297;BME280;61524;50.938;11.396;2023-04-28T00:20:12;99138.75;;;6.21;81.41
73297;BME280;61524;50.938;11.396;2023-04-28T00:22:37;99140.25;;;6.10;81.76
73297;BME280;61524;50.938;11.396;2023-04-28T00:25:03;99136.00;;;6.02;82.57
73297;BME280;61524;50.938;11.396;2023-04-28T00:27:29;99119.28;;;6.02;82.14
73297;BME280;61524;50.938;11.396;2023-04-28T00:29:54;99120.97;;;5.96;81.98
73297;BME280;61524;50.938;11.396;2023-04-28T00:32:20;99131.38;;;5.98;82.69
73297;BME280;61524;50.938;11.396;2023-04-28T00:34:45;99133.00;;;5.99;82.44
73297;BME280;61524;50.938;11.396;2023-04-28T00:37:11;99117.44;;;6.02;82.11
73297;BME280;61524;50.938;11.396;2023-04-28T00:39:36;99117.44;;;6.02;82.19
73297;BME280;61524;50.938;11.396;2023-04-28T00:42:02;99118.69;;;6.00;81.85
73297;BME280;61524;50.938;11.396;2023-04-28T00:44:28;99106.91;;;5.89;82.01
73297;BME280;61524;50.938;11.396;2023-04-28T00:46:54;99119.03;;;6.10;81.93
73297;BME280;61524;50.938;11.396;2023-04-28T00:49:20;99117.84;;;6.06;82.18
73297;BME280;61524;50.938;11.396;2023-04-28T00:51:46;99105.69;;;5.92;82.59
73297;BME280;61524;50.938;11.396;2023-04-28T00:54:14;99115.41;;;6.04;81.37
73297;BME280;61524;50.938;11.396;2023-04-28T00:56:40;99107.06;;;6.01;81.04
73297;BME280;61524;50.938;11.396;2023-04-28T00:59:05;99102.22;;;5.91;81.67
73297;BME280;61524;50.938;11.396;2023-04-28T01:01:31;99099.38;;;5.86;81.94
73297;BME280;61524;50.938;11.396;2023-04-28T01:03:57;99093.25;;;5.86;82.74
73297;BME280;61524;50.938;11.396;2023-04-28T01:06:23;99078.44;;;5.78;82.67
73297;BME280;61524;50.938;11.396;2023-04-28T01:08:49;99084.50;;;5.85;82.71
73297;BME280;61524;50.938;11.396;2023-04-28T01:11:18;99093.09;;;5.80;83.08
73297;BME280;61524;50.938;11.396;2023-04-28T01:13:43;99078.00;;;5.81;83.85
73297;BME280;61524;50.938;11.396;2023-04-28T01:16:09;99073.69;;;5.87;82.78
73297;BME280;61524;50.938;11.396;2023-04-28T01:18:35;99079.00;;;5.87;82.71
73297;BME280;61524;50.938;11.396;2023-04-28T01:21:01;99079.38;;;5.90;83.03
73297;BME280;61524;50.938;11.396;2023-04-28T01:23:28;99067.94;;;5.90;82.41
73297;BME280;61524;50.938;11.396;2023-04-28T01:25:53;99070.59;;;5.90;81.70
73297;BME280;61524;50.938;11.396;2023-04-28T01:28:19;99071.38;;;5.97;82.09
73297;BME280;61524;50.938;11.396;2023-04-28T01:30:44;99065.72;;;5.93;82.63
73297;BME280;61524;50.938;11.396;2023-04-28T01:33:10;99050.25;;;5.84;82.96
73297;BME280;61524;50.938;11.396;2023-04-28T01:35:35;99056.41;;;5.77;83.58
73297;BME280;61524;50.938;11.396;2023-04-28T01:38:01;99054.34;;;5.79;83.51
73297;BME280;61524;50.938;11.396;2023-04-28T01:40:29;99061.91;;;5.83;83.25
73297;BME280;61524;50.938;11.396;2023-04-28T01:42:54;99057.63;;;5.82;82.35
73297;BME280;61524;50.938;11.396;2023-04-28T01:45:20;99045.75;;;5.84;82.62
73297;BME280;61524;50.938;11.396;2023-04-28T01:47:45;99050.84;;;5.92;83.28
73297;BME280;61524;50.938;11.396;2023-04-28T01:50:11;99053.28;;;5.87;82.72
73297;BME280;61524;50.938;11.396;2023-04-28T01:52:36;99047.53;;;5.90;82.31
73297;BME280;61524;50.938;11.396;2023-04-28T01:55:02;99055.47;;;5.97;82.48
73297;BME280;61524;50.938;11.396;2023-04-28T01:57:27;99042.88;;;5.92;82.78
73297;BME280;61524;50.938;11.396;2023-04-28T01:59:53;99042.66;;;5.94;83.39
73297;BME280;61524;50.938;11.396;2023-04-28T02:02:19;99053.66;;;5.97;82.34
73297;BME280;61524;50.938;11.396;2023-04-28T02:04:44;99032.91;;;5.88;82.41
73297;BME280;61524;50.938;11.396;2023-04-28T02:07:10;99031.13;;;5.82;82.26
73297;BME280;61524;50.938;11.396;2023-04-28T02:09:35;99041.72;;;5.82;82.94
73297;BME280;61524;50.938;11.396;2023-04-28T02:12:01;99036.25;;;5.76;83.10
73297;BME280;61524;50.938;11.396;2023-04-28T02:14:27;99035.56;;;5.81;82.46
73297;BME280;61524;50.938;11.396;2023-04-28T02:16:53;99024.22;;;5.74;82.77
73297;BME280;61524;50.938;11.396;2023-04-28T02:19:18;99026.38;;;5.59;83.40
73297;BME280;61524;50.938;11.396;2023-04-28T02:21:44;99015.75;;;5.59;83.55
73297;BME280;61524;50.938;11.396;2023-04-28T02:24:09;99030.81;;;5.65;83.91
73297;BME280;61524;50.938;11.396;2023-04-28T02:26:35;99031.63;;;5.65;84.10
73297;BME280;61524;50.938;11.396;2023-04-28T02:29:00;99020.47;;;5.57;84.52
73297;BME280;61524;50.938;11.396;2023-04-28T02:31:28;99019.03;;;5.61;83.45
73297;BME280;61524;50.938;11.396;2023-04-28T02:33:53;99003.47;;;5.39;84.13
73297;BME280;61524;50.938;11.396;2023-04-28T02:36:19;99018.13;;;5.42;85.29
73297;BME280;61524;50.938;11.396;2023-04-28T02:38:44;99016.03;;;5.50;84.05
73297;BME280;61524;50.938;11.396;2023-04-28T02:41:09;99008.44;;;5.61;83.81
73297;BME280;61524;50.938;11.396;2023-04-28T02:43:36;99015.06;;;5.70;83.76
73297;BME280;61524;50.938;11.396;2023-04-28T02:46:03;98996.75;;;5.68;83.57
73297;BME280;61524;50.938;11.396;2023-04-28T02:48:28;98998.34;;;5.69;84.09
73297;BME280;61524;50.938;11.396;2023-04-28T02:50:54;98991.22;;;5.70;83.95
73297;BME280;61524;50.938;11.396;2023-04-28T02:53:20;98991.53;;;5.80;83.87
73297;BME280;61524;50.938;11.396;2023-04-28T02:55:46;98995.81;;;5.81;83.76
73297;BME280;61524;50.938;11.396;2023-04-28T02:58:12;98999.47;;;5.87;82.91
73297;BME280;61524;50.938;11.396;2023-04-28T03:00:37;99001.09;;;5.88;82.87
73297;BME280;61524;50.938;11.396;2023-04-28T03:03:02;98997.41;;;5.89;83.32
73297;BME280;61524;50.938;11.396;2023-04-28T03:05:28;98997.75;;;5.99;82.91
73297;BME280;61524;50.938;11.396;2023-04-28T03:07:54;98994.22;;;6.05;82.22
73297;BME280;61524;50.938;11.396;2023-04-28T03:10:19;98983.19;;;6.08;81.15
73297;BME280;61524;50.938;11.396;2023-04-28T03:12:45;98990.91;;;6.10;82.47
73297;BME280;61524;50.938;11.396;2023-04-28T03:15:10;98974.72;;;6.18;80.79
73297;BME280;61524;50.938;11.396;2023-04-28T03:17:36;98968.97;;;6.21;80.82
73297;BME280;61524;50.938;11.396;2023-04-28T03:20:06;98967.06;;;6.10;81.72
73297;BME280;61524;50.938;11.396;2023-04-28T03:22:32;98951.13;;;6.10;81.99
73297;BME280;61524;50.938;11.396;2023-04-28T03:24:58;98946.56;;;6.17;81.53
73297;BME280;61524;50.938;11.396;2023-04-28T03:27:23;98950.63;;;6.19;82.32
73297;BME280;61524;50.938;11.396;2023-04-28T03:29:49;98952.84;;;6.22;81.94
73297;BME280;61524;50.938;11.396;2023-04-28T03:32:14;98944.13;;;6.34;80.70
73297;BME280;61524;50.938;11.396;2023-04-28T03:34:40;98936.50;;;6.25;81.23
73297;BME280;61524;50.938;11.396;2023-04-28T03:37:05;98931.00;;;6.39;81.66
73297;BME280;61524;50.938;11.396;2023-04-28T03:39:31;98938.75;;;6.40;81.71
73297;BME280;61524;50.938;11.396;2023-04-28T03:41:56;98936.25;;;6.45;82.15
73297;BME280;61524;50.938;11.396;2023-04-28T03:44:22;98936.38;;;6.69;79.30
73297;BME280;61524;50.938;11.396;2023-04-28T03:46:48;98932.34;;;6.48;80.92
73297;BME280;61524;50.938;11.396;2023-04-28T03:49:14;98927.91;;;6.60;80.80
73297;BME280;61524;50.938;11.396;2023-04-28T03:51:39;98933.66;;;6.57;81.60
73297;BME280;61524;50.938;11.396;2023-04-28T03:54:05;98931.69;;;6.34;82.37
73297;BME280;61524;50.938;11.396;2023-04-28T03:56:30;98931.31;;;6.49;81.87
73297;BME280;61524;50.938;11.396;2023-04-28T03:58:56;98924.75;;;6.51;81.58
73297;BME280;61524;50.938;11.396;2023-04-28T04:01:21;98919.72;;;6.62;80.74
73297;BME280;61524;50.938;11.396;2023-04-28T04:03:47;98918.09;;;6.61;81.57
73297;BME280;61524;50.938;11.396;2023-04-28T04:06:13;98916.00;;;6.81;79.86
73297;BME280;61524;50.938;11.396;2023-04-28T04:08:39;98921.34;;;6.93;78.91
73297;BME280;61524;50.938;11.396;2023-04-28T04:11:04;98914.38;;;6.80;80.90
73297;BME280;61524;50.938;11.396;2023-04-28T04:13:30;98913.84;;;6.90;79.01
73297;BME280;61524;50.938;11.396;2023-04-28T04:15:55;98909.53;;;6.89;77.31
73297;BME280;61524;50.938;11.396;2023-04-28T04:18:21;98899.06;;;6.64;76.72
73297;BME280;61524;50.938;11.396;2023-04-28T04:20:46;98901.72;;;6.94;76.02
73297;BME280;61524;50.938;11.396;2023-04-28T04:23:12;98912.88;;;7.26;75.08
73297;BME280;61524;50.938;11.396;2023-04-28T04:25:37;98891.88;;;7.48;73.58
73297;BME280;61524;50.938;11.396;2023-04-28T04:28:03;98893.53;;;7.49;73.36
73297;BME280;61524;50.938;11.396;2023-04-28T04:30:28;98889.69;;;7.68;72.44
73297;BME280;61524;50.938;11.396;2023-04-28T04:32:54;98889.81;;;7.73;72.30
73297;BME280;61524;50.938;11.396;2023-04-28T04:35:19;98883.38;;;7.81;72.19
73297;BME280;61524;50.938;11.396;2023-04-28T04:37:44;98892.94;;;7.58;73.67
73297;BME280;61524;50.938;11.396;2023-04-28T04:40:10;98898.38;;;7.52;73.76
73297;BME280;61524;50.938;11.396;2023-04-28T04:42:36;98887.84;;;7.69;72.82
73297;BME280;61524;50.938;11.396;2023-04-28T04:45:01;98896.44;;;7.71;73.37
73297;BME280;61524;50.938;11.396;2023-04-28T04:47:27;98893.63;;;7.89;73.19
73297;BME280;61524;50.938;11.396;2023-04-28T04:49:52;98901.03;;;7.87;72.51
73297;BME280;61524;50.938;11.396;2023-04-28T04:52:18;98887.63;;;7.82;72.28
73297;BME280;61524;50.938;11.396;2023-04-28T04:54:44;98898.38;;;7.87;72.27
73297;BME280;61524;50.938;11.396;2023-04-28T04:57:11;98875.25;;;7.87;72.79
73297;BME280;61524;50.938;11.396;2023-04-28T04:59:36;98886.91;;;8.10;71.93
73297;BME280;61524;50.938;11.396;2023-04-28T05:02:02;98879.50;;;8.00;73.25
73297;BME280;61524;50.938;11.396;2023-04-28T05:04:27;98867.84;;;7.89;75.20
73297;BME280;61524;50.938;11.396;2023-04-28T05:06:53;98877.34;;;7.97;74.96
73297;BME280;61524;50.938;11.396;2023-04-28T05:09:18;98874.41;;;8.10;75.60
73297;BME280;61524;50.938;11.396;2023-04-28T05:11:44;98877.75;;;8.06;75.08
73297;BME280;61524;50.938;11.396;2023-04-28T05:14:10;98874.84;;;8.19;73.73
73297;BME280;61524;50.938;11.396;2023-04-28T05:16:37;98867.19;;;8.23;74.70
73297;BME280;61524;50.938;11.396;2023-04-28T05:19:03;98873.69;;;8.27;75.16
73297;BME280;61524;50.938;11.396;2023-04-28T05:21:28;98857.06;;;8.08;76.76
73297;BME280;61524;50.938;11.396;2023-04-28T05:23:54;98857.63;;;8.10;77.73
73297;BME280;61524;50.938;11.396;2023-04-28T05:26:20;98861.16;;;7.87;79.76
73297;BME280;61524;50.938;11.396;2023-04-28T05:28:45;98861.13;;;7.99;79.10
73297;BME280;61524;50.938;11.396;2023-04-28T05:31:11;98856.38;;;8.01;78.84
73297;BME280;61524;50.938;11.396;2023-04-28T05:33:36;98856.09;;;8.26;77.73
73297;BME280;61524;50.938;11.396;2023-04-28T05:36:02;98861.88;;;8.23;76.56
73297;BME280;61524;50.938;11.396;2023-04-28T05:38:27;98861.41;;;8.26;77.29
73297;BME280;61524;50.938;11.396;2023-04-28T05:40:53;98852.97;;;8.29;76.08
73297;BME280;61524;50.938;11.396;2023-04-28T05:43:18;98854.69;;;8.35;77.42
73297;BME280;61524;50.938;11.396;2023-04-28T05:45:44;98854.31;;;8.43;76.83
73297;BME280;61524;50.938;11.396;2023-04-28T05:48:10;98853.47;;;8.54;77.17
73297;BME280;61524;50.938;11.396;2023-04-28T05:50:35;98856.97;;;8.72;77.27
73297;BME280;61524;50.938;11.396;2023-04-28T05:53:00;98848.97;;;8.83;76.77
73297;BME280;61524;50.938;11.396;2023-04-28T05:55:26;98854.16;;;8.61;78.27
73297;BME280;61524;50.938;11.396;2023-04-28T05:57:52;98849.72;;;8.38;79.09
73297;BME280;61524;50.938;11.396;2023-04-28T06:00:18;98860.47;;;8.32;79.37
73297;BME280;61524;50.938;11.396;2023-04-28T06:02:43;98851.34;;;8.39;78.80
73297;BME280;61524;50.938;11.396;2023-04-28T06:05:09;98862.56;;;8.41;78.16
73297;BME280;61524;50.938;11.396;2023-04-28T06:07:35;98858.75;;;8.37;78.59
73297;BME280;61524;50.938;11.396;2023-04-28T06:10:00;98866.72;;;8.37;77.93
73297;BME280;61524;50.938;11.396;2023-04-28T06:12:26;98868.66;;;8.54;77.59
73297;BME280;61524;50.938;11.396;2023-04-28T06:14:51;98860.38;;;8.67;76.90
73297;BME280;61524;50.938;11.396;2023-04-28T06:17:19;98866.16;;;8.92;76.89
73297;BME280;61524;50.938;11.396;2023-04-28T06:19:45;98869.41;;;8.94;76.56
73297;BME280;61524;50.938;11.396;2023-04-28T06:22:11;98859.09;;;8.70;76.66
73297;BME280;61524;50.938;11.396;2023-04-28T06:24:36;98866.03;;;8.71;75.74
73297;BME280;61524;50.938;11.396;2023-04-28T06:27:02;98868.69;;;8.71;76.27
73297;BME280;61524;50.938;11.396;2023-04-28T06:29:27;98874.19;;;8.81;75.56
73297;BME280;61524;50.938;11.396;2023-04-28T06:31:53;98868.78;;;8.76;75.03
73297;BME280;61524;50.938;11.396;2023-04-28T06:34:25;98865.63;;;9.24;72.89
73297;BME280;61524;50.938;11.396;2023-04-28T06:36:57;98868.34;;;9.12;74.26
73297;BME280;61524;50.938;11.396;2023-04-28T06:39:22;98858.81;;;9.00;74.36
73297;BME280;61524;50.938;11.396;2023-04-28T06:41:48;98873.25;;;9.04;75.35
73297;BME280;61524;50.938;11.396;2023-04-28T06:44:13;98863.09;;;9.51;73.75
73297;BME280;61524;50.938;11.396;2023-04-28T06:46:39;98859.69;;;9.72;71.97
73297;BME280;61524;50.938;11.396;2023-04-28T06:49:04;98849.47;;;9.86;71.06
73297;BME280;61524;50.938;11.396;2023-04-28T06:51:30;98849.63;;;9.96;70.71
73297;BME280;61524;50.938;11.396;2023-04-28T06:53:59;98855.59;;;10.25;69.54
73297;BME280;61524;50.938;11.396;2023-04-28T06:56:25;98853.28;;;10.56;71.15
73297;BME280;61524;50.938;11.396;2023-04-28T06:58:51;98858.34;;;10.80;70.89
73297;BME280;61524;50.938;11.396;2023-04-28T07:01:16;98850.25;;;11.01;70.07
73297;BME280;61524;50.938;11.396;2023-04-28T07:03:42;98847.31;;;10.71;69.25
73297;BME280;61524;50.938;11.396;2023-04-28T07:06:07;98847.16;;;10.56;71.00
73297;BME280;61524;50.938;11.396;2023-04-28T07:08:34;98850.84;;;10.76;69.74
73297;BME280;61524;50.938;11.396;2023-04-28T07:11:01;98850.97;;;10.92;68.44
73297;BME280;61524;50.938;11.396;2023-04-28T07:13:29;98832.75;;;11.16;70.55
73297;BME280;61524;50.938;11.396;2023-04-28T07:15:55;98838.16;;;10.94;71.17
73297;BME280;61524;50.938;11.396;2023-04-28T07:18:21;98832.28;;;10.97;71.73
73297;BME280;61524;50.938;11.396;2023-04-28T07:20:46;98820.09;;;11.06;72.33
73297;BME280;61524;50.938;11.396;2023-04-28T07:23:13;98828.06;;;11.01;72.03
73297;BME280;61524;50.938;11.396;2023-04-28T07:25:38;98817.91;;;10.98;72.64
73297;BME280;61524;50.938;11.396;2023-04-28T07:28:07;98815.19;;;10.93;70.74
73297;BME280;61524;50.938;11.396;2023-04-28T07:30:33;98816.13;;;11.09;70.43
73297;BME280;61524;50.938;11.396;2023-04-28T07:32:59;98819.78;;;11.02;70.33
73297;BME280;61524;50.938;11.396;2023-04-28T07:35:25;98831.25;;;10.98;72.12
73297;BME280;61524;50.938;11.396;2023-04-28T07:37:50;98814.66;;;10.96;72.92
73297;BME280;61524;50.938;11.396;2023-04-28T07:40:16;98829.25;;;10.83;72.09
73297;BME280;61524;50.938;11.396;2023-04-28T07:42:42;98810.88;;;10.92;72.28
73297;BME280;61524;50.938;11.396;2023-04-28T07:45:07;98821.25;;;11.15;72.23
73297;BME280;61524;50.938;11.396;2023-04-28T07:47:33;98826.19;;;11.34;72.20
73297;BME280;61524;50.938;11.396;2023-04-28T07:49:58;98829.44;;;11.41;72.31
73297;BME280;61524;50.938;11.396;2023-04-28T07:52:27;98829.69;;;11.39;72.69
73297;BME280;61524;50.938;11.396;2023-04-28T07:54:52;98824.34;;;11.39;72.69
73297;BME280;61524;50.938;11.396;2023-04-28T07:57:18;98816.66;;;11.48;72.43
73297;BME280;61524;50.938;11.396;2023-04-28T07:59:43;98822.13;;;11.26;74.60
73297;BME280;61524;50.938;11.396;2023-04-28T08:02:09;98813.94;;;11.43;73.16
73297;BME280;61524;50.938;11.396;2023-04-28T08:04:37;98819.38;;;11.53;72.64
73297;BME280;61524;50.938;11.396;2023-04-28T08:07:03;98818.75;;;11.46;73.36
73297;BME280;61524;50.938;11.396;2023-04-28T08:09:28;98816.50;;;11.65;72.33
73297;BME280;61524;50.938;11.396;2023-04-28T08:11:54;98825.28;;;11.60;72.90
73297;BME280;61524;50.938;11.396;2023-04-28T08:14:19;98814.03;;;11.58;73.11
73297;BME280;61524;50.938;11.396;2023-04-28T08:16:45;98809.59;;;11.32;74.90
73297;BME280;61524;50.938;11.396;2023-04-28T08:19:11;98811.81;;;11.45;75.05
73297;BME280;61524;50.938;11.396;2023-04-28T08:21:37;98822.84;;;11.16;78.05
73297;BME280;61524;50.938;11.396;2023-04-28T08:24:02;98837.50;;;11.14;78.72
73297;BME280;61524;50.938;11.396;2023-04-28T08:26:28;98837.59;;;10.92;79.86
73297;BME280;61524;50.938;11.396;2023-04-28T08:28:53;98835.72;;;10.65;82.11
73297;BME280;61524;50.938;11.396;2023-04-28T08:31:18;98834.75;;;10.71;82.19
73297;BME280;61524;50.938;11.396;2023-04-28T08:33:44;98833.31;;;10.91;79.52
73297;BME280;61524;50.938;11.396;2023-04-28T08:36:13;98840.38;;;11.02;79.89
73297;BME280;61524;50.938;11.396;2023-04-28T08:38:39;98827.09;;;11.12;79.82
73297;BME280;61524;50.938;11.396;2023-04-28T08:41:06;98826.63;;;11.20;80.27
73297;BME280;61524;50.938;11.396;2023-04-28T08:43:34;98832.28;;;10.97;82.26
73297;BME280;61524;50.938;11.396;2023-04-28T08:46:05;98823.94;;;11.20;82.44
73297;BME280;61524;50.938;11.396;2023-04-28T08:48:41;98828.00;;;11.28;81.21
73297;BME280;61524;50.938;11.396;2023-04-28T08:51:14;98813.09;;;11.37;81.20
73297;BME280;61524;50.938;11.396;2023-04-28T08:53:43;98812.94;;;11.54;81.87
73297;BME280;61524;50.938;11.396;2023-04-28T08:56:09;98826.25;;;11.44;82.22
73297;BME280;61524;50.938;11.396;2023-04-28T08:58:38;98830.06;;;11.53;82.42
73297;BME280;61524;50.938;11.396;2023-04-28T09:01:04;98824.94;;;11.89;82.93
73297;BME280;61524;50.938;11.396;2023-04-28T09:03:30;98827.91;;;11.50;84.58
73297;BME280;61524;50.938;11.396;2023-04-28T09:06:00;98830.31;;;11.51;84.49
73297;BME280;61524;50.938;11.396;2023-04-28T09:08:26;98834.47;;;11.32;86.67
73297;BME280;61524;50.938;11.396;2023-04-28T09:11:09;98820.16;;;11.16;87.54
73297;BME280;61524;50.938;11.396;2023-04-28T09:13:35;98815.81;;;11.42;87.08
73297;BME280;61524;50.938;11.396;2023-04-28T09:16:02;98818.41;;;11.69;85.50
73297;BME280;61524;50.938;11.396;2023-04-28T09:18:29;98808.38;;;11.49;87.21
73297;BME280;61524;50.938;11.396;2023-04-28T09:21:08;98810.66;;;11.30;88.19
73297;BME280;61524;50.938;11.396;2023-04-28T09:23:45;98812.84;;;11.39;88.37
73297;BME280;61524;50.938;11.396;2023-04-28T09:26:13;98817.97;;;11.45;87.73
73297;BME280;61524;50.938;11.396;2023-04-28T09:28:38;98809.78;;;11.20;89.08
73297;BME280;61524;50.938;11.396;2023-04-28T09:31:04;98798.78;;;11.16;89.39
73297;BME280;61524;50.938;11.396;2023-04-28T09:33:29;98802.59;;;11.25;89.59
73297;BME280;61524;50.938;11.396;2023-04-28T09:35:55;98802.34;;;10.95;90.11
73297;BME280;61524;50.938;11.396;2023-04-28T09:38:21;98801.88;;;10.71;89.85
73297;BME280;61524;50.938;11.396;2023-04-28T09:40:51;98817.66;;;10.72;89.61
73297;BME280;61524;50.938;11.396;2023-04-28T09:43:34;98796.94;;;10.58;90.63
73297;BME280;61524;50.938;11.396;2023-04-28T09:46:02;98795.53;;;10.50;89.87
73297;BME280;61524;50.938;11.396;2023-04-28T09:48:32;98785.88;;;10.44;90.86
73297;BME280;61524;50.938;11.396;2023-04-28T09:50:59;98788.16;;;10.62;91.05
73297;BME280;61524;50.938;11.396;2023-04-28T09:53:26;98783.41;;;10.69;90.59
73297;BME280;61524;50.938;11.396;2023-04-28T09:55:53;98788.31;;;10.77;89.85
73297;BME280;61524;50.938;11.396;2023-04-28T09:58:23;98776.16;;;10.65;90.23
73297;BME280;61524;50.938;11.396;2023-04-28T10:00:53;98778.28;;;10.63;89.75
73297;BME280;61524;50.938;11.396;2023-04-28T10:03:23;98778.06;;;10.69;90.31
73297;BME280;61524;50.938;11.396;2023-04-28T10:05:50;98775.06;;;10.61;89.81
73297;BME280;61524;50.938;11.396;2023-04-28T10:08:17;98757.84;;;10.78;90.12
73297;BME280;61524;50.938;11.396;2023-04-28T10:10:45;98766.16;;;11.14;89.45
73297;BME280;61524;50.938;11.396;2023-04-28T10:13:10;98761.50;;;11.42;89.73
73297;BME280;61524;50.938;11.396;2023-04-28T10:15:36;98768.56;;;11.58;87.96
73297;BME280;61524;50.938;11.396;2023-04-28T10:18:04;98766.25;;;11.35;88.12
73297;BME280;61524;50.938;11.396;2023-04-28T10:20:30;98768.66;;;11.31;87.85
73297;BME280;61524;50.938;11.396;2023-04-28T10:25:33;98768.44;;;11.38;87.30
73297;BME280;61524;50.938;11.396;2023-04-28T10:28:03;98761.53;;;11.47;87.84
73297;BME280;61524;50.938;11.396;2023-04-28T10:30:30;98764.22;;;11.47;87.42
73297;BME280;61524;50.938;11.396;2023-04-28T10:38:09;98747.84;;;11.86;85.44
73297;BME280;61524;50.938;11.396;2023-04-28T10:40:40;98744.13;;;11.97;84.29
73297;BME280;61524;50.938;11.396;2023-04-28T10:43:07;98747.03;;;11.85;83.97
73297;BME280;61524;50.938;11.396;2023-04-28T10:56:14;98754.94;;;12.27;84.25
73297;BME280;61524;50.938;11.396;2023-04-28T10:58:41;98750.16;;;11.77;85.74
73297;BME280;61524;50.938;11.396;2023-04-28T11:01:30;98734.91;;;11.77;85.88
73297;BME280;61524;50.938;11.396;2023-04-28T11:04:08;98742.41;;;11.75;86.41
73297;BME280;61524;50.938;11.396;2023-04-28T11:06:44;98730.59;;;11.66;86.15
73297;BME280;61524;50.938;11.396;2023-04-28T11:19:20;98737.69;;;11.93;85.82
73297;BME280;61524;50.938;11.396;2023-04-28T11:21:47;98730.22;;;11.95;85.76
73297;BME280;61524;50.938;11.396;2023-04-28T11:24:13;98731.38;;;11.67;86.47
73297;BME280;61524;50.938;11.396;2023-04-28T11:26:40;98731.69;;;11.70;87.46
73297;BME280;61524;50.938;11.396;2023-04-28T11:29:06;98720.69;;;11.67;86.91
73297;BME280;61524;50.938;11.396;2023-04-28T11:31:32;98717.78;;;11.73;87.39
73297;BME280;61524;50.938;11.396;2023-04-28T11:34:20;98709.97;;;11.67;86.85
73297;BME280;61524;50.938;11.396;2023-04-28T11:36:46;98699.59;;;11.75;87.17
73297;BME280;61524;50.938;11.396;2023-04-28T11:39:12;98689.41;;;11.72;88.32
73297;BME280;61524;50.938;11.396;2023-04-28T11:41:43;98717.25;;;11.76;87.43
73297;BME280;61524;50.938;11.396;2023-04-28T11:44:28;98710.28;;;11.75;87.48
73297;BME280;61524;50.938;11.396;2023-04-28T11:46:55;98704.94;;;11.75;87.07
73297;BME280;61524;50.938;11.396;2023-04-28T11:49:41;98691.38;;;11.97;86.83
73297;BME280;61524;50.938;11.396;2023-04-28T11:52:08;98695.75;;;12.34;87.03
73297;BME280;61524;50.938;11.396;2023-04-28T11:54:34;98685.03;;;12.44;86.59
73297;BME280;61524;50.938;11.396;2023-04-28T11:57:00;98695.50;;;12.71;86.16
73297;BME280;61524;50.938;11.396;2023-04-28T11:59:30;98684.50;;;12.68;85.26
73297;BME280;61524;50.938;11.396;2023-04-28T12:01:59;98691.22;;;12.65;85.36
73297;BME280;61524;50.938;11.396;2023-04-28T12:07:08;98672.44;;;12.29;86.85
73297;BME280;61524;50.938;11.396;2023-04-28T12:09:35;98675.09;;;12.29;87.31
73297;BME280;61524;50.938;11.396;2023-04-28T12:12:03;98671.88;;;12.58;86.80
73297;BME280;61524;50.938;11.396;2023-04-28T12:14:29;98671.34;;;12.81;85.91
73297;BME280;61524;50.938;11.396;2023-04-28T12:16:57;98666.53;;;12.78;86.67
73297;BME280;61524;50.938;11.396;2023-04-28T12:19:23;98676.66;;;13.12;85.61
73297;BME280;61524;50.938;11.396;2023-04-28T12:22:04;98663.72;;;13.39;85.73
73297;BME280;61524;50.938;11.396;2023-04-28T12:24:30;98654.78;;;14.09;83.07
73297;BME280;61524;50.938;11.396;2023-04-28T12:29:40;98658.00;;;13.61;84.94
73297;BME280;61524;50.938;11.396;2023-04-28T12:32:09;98657.44;;;13.70;83.81
73297;BME280;61524;50.938;11.396;2023-04-28T12:34:36;98648.97;;;13.91;84.15
73297;BME280;61524;50.938;11.396;2023-04-28T12:37:03;98662.16;;;13.88;83.55
73297;BME280;61524;50.938;11.396;2023-04-28T12:39:30;98658.28;;;14.04;83.10
73297;BME280;61524;50.938;11.396;2023-04-28T12:41:56;98645.19;;;13.98;83.54
73297;BME280;61524;50.938;11.396;2023-04-28T12:44:24;98648.94;;;13.97;82.57
73297;BME280;61524;50.938;11.396;2023-04-28T12:46:50;98657.56;;;13.93;82.69
73297;BME280;61524;50.938;11.396;2023-04-28T12:49:16;98643.78;;;14.10;82.36
73297;BME280;61524;50.938;11.396;2023-04-28T12:51:42;98645.47;;;13.96;83.17
73297;BME280;61524;50.938;11.396;2023-04-28T12:54:07;98642.88;;;14.20;82.94
73297;BME280;61524;50.938;11.396;2023-04-28T12:56:33;98638.19;;;14.36;82.11
73297;BME280;61524;50.938;11.396;2023-04-28T12:58:59;98632.59;;;14.32;82.60
73297;BME280;61524;50.938;11.396;2023-04-28T13:01:26;98617.03;;;13.90;82.12
73297;BME280;61524;50.938;11.396;2023-04-28T13:03:52;98639.53;;;14.38;81.15
73297;BME280;61524;50.938;11.396;2023-04-28T13:06:19;98642.09;;;14.59;81.94
73297;BME280;61524;50.938;11.396;2023-04-28T13:08:45;98629.81;;;14.42;81.92
73297;BME280;61524;50.938;11.396;2023-04-28T13:11:11;98626.31;;;14.76;80.95
73297;BME280;61524;50.938;11.396;2023-04-28T13:13:37;98637.06;;;14.76;81.79
73297;BME280;61524;50.938;11.396;2023-04-28T13:16:03;98622.63;;;14.67;81.31
73297;BME280;61524;50.938;11.396;2023-04-28T13:18:30;98611.22;;;14.46;81.11
73297;BME280;61524;50.938;11.396;2023-04-28T13:20:56;98610.25;;;14.37;80.71
73297;BME280;61524;50.938;11.396;2023-04-28T13:23:21;98602.53;;;14.25;82.10
73297;BME280;61524;50.938;11.396;2023-04-28T13:25:47;98603.28;;;14.31;81.67